Time;durP1;ratioP1;P1;durP2;ratioP2;P2;SDS_P1;SDS_P2;PMS_P1;PMS_P2;Temp;Humidity;BMP_temperature;BMP_pressure;BME280_temperature;BME280_humidity;BME280_pressure;Samples;Min_cycle;Max_cycle;Signal;HPM_P1;HPM_P2
2022/03/02 00:01:21;;;;;;;1.43;1.23;;;;;;;-1.24;68.89;97088.09;5036752;28;20232;-73
2022/03/02 00:03:48;;;;;;;1.53;1.00;;;;;;;-1.13;68.77;97081.38;5035438;28;20224;-74
2022/03/02 00:06:14;;;;;;;6.53;1.93;;;;;;;-1.17;69.17;97084.25;5035937;28;20201;-74
2022/03/02 00:08:42;;;;;;;2.03;1.87;;;;;;;-1.12;68.53;97083.06;5036551;28;20201;-74
2022/03/02 00:11:11;;;;;;;2.37;2.03;;;;;;;-0.94;68.47;97076.84;5035945;28;20197;-74
2022/03/02 00:13:38;;;;;;;3.07;1.87;;;;;;;-1.11;69.16;97082.16;5035528;28;20842;-74
2022/03/02 00:16:04;;;;;;;3.03;2.60;;;;;;;-1.01;69.00;97085.03;5036494;28;20197;-73
2022/03/02 00:18:31;;;;;;;1.53;1.43;;;;;;;-1.15;68.78;97087.56;5036039;28;20208;-73
2022/03/02 00:20:57;;;;;;;2.53;1.60;;;;;;;-1.02;67.96;97083.38;5035533;28;20209;-73
2022/03/02 00:23:24;;;;;;;2.73;2.53;;;;;;;-1.05;67.73;97094.72;5035543;28;20224;-73
2022/03/02 00:25:50;;;;;;;3.77;2.33;;;;;;;-1.03;68.26;97085.13;5036019;28;20589;-74
2022/03/02 00:28:18;;;;;;;2.10;1.90;;;;;;;-1.06;69.27;97087.91;5035681;28;20600;-74
2022/03/02 00:30:44;;;;;;;1.70;1.53;;;;;;;-1.30;69.79;97091.00;5036388;28;20201;-74
2022/03/02 00:33:11;;;;;;;2.67;1.70;;;;;;;-1.34;69.85;97094.69;5034979;28;20250;-74
2022/03/02 00:35:37;;;;;;;7.10;1.97;;;;;;;-1.19;69.65;97086.91;5035339;28;20216;-73
2022/03/02 00:38:06;;;;;;;2.50;1.63;;;;;;;-1.08;69.95;97091.50;5035472;28;20566;-73
2022/03/02 00:40:33;;;;;;;4.43;1.87;;;;;;;-1.15;70.28;97088.38;5036145;28;20717;-73
2022/03/02 00:43:00;;;;;;;2.93;1.83;;;;;;;-1.06;69.25;97087.03;5035135;28;20228;-74
2022/03/02 00:45:28;;;;;;;5.73;2.43;;;;;;;-1.26;69.88;97084.78;5035803;28;20212;-73
2022/03/02 00:47:54;;;;;;;2.23;2.03;;;;;;;-1.43;69.96;97089.19;5035417;28;20233;-73
2022/03/02 00:50:21;;;;;;;1.33;1.33;;;;;;;-1.34;70.89;97086.09;5035494;28;20212;-73
2022/03/02 00:52:48;;;;;;;2.13;1.50;;;;;;;-1.32;70.47;97090.28;5035101;28;20324;-73
2022/03/02 00:55:15;;;;;;;4.73;0.83;;;;;;;-1.37;69.23;97081.94;5035295;28;20227;-73
2022/03/02 00:57:42;;;;;;;2.83;2.10;;;;;;;-1.36;69.60;97072.41;5035919;28;20211;-73
2022/03/02 01:00:10;;;;;;;2.43;1.27;;;;;;;-1.48;70.30;97062.78;5035712;28;20207;-73
2022/03/02 01:02:38;;;;;;;1.80;1.60;;;;;;;-1.42;70.35;97058.09;5034771;28;20231;-73
2022/03/02 01:05:07;;;;;;;1.97;1.87;;;;;;;-1.32;69.55;97048.06;5035364;28;20200;-73
2022/03/02 01:07:35;;;;;;;1.97;1.47;;;;;;;-1.61;69.19;97046.28;5035571;28;20254;-73
2022/03/02 01:10:02;;;;;;;2.17;1.77;;;;;;;-1.78;69.87;97041.22;5034854;28;20827;-73
2022/03/02 01:12:28;;;;;;;1.43;1.23;;;;;;;-1.72;70.15;97051.19;5035197;28;20220;-73
2022/03/02 01:14:55;;;;;;;2.50;2.30;;;;;;;-1.57;70.48;97055.53;5035662;28;20211;-73
2022/03/02 01:17:21;;;;;;;1.23;1.03;;;;;;;-1.71;70.81;97051.09;5035408;28;20208;-73
2022/03/02 01:19:49;;;;;;;3.77;2.73;;;;;;;-1.62;70.93;97049.78;5037783;28;20208;-72
2022/03/02 01:22:17;;;;;;;2.33;2.00;;;;;;;-1.75;69.85;97054.78;5038597;28;20623;-73
2022/03/02 01:24:44;;;;;;;2.57;2.00;;;;;;;-1.96;71.18;97070.63;5038996;28;20205;-73
2022/03/02 01:27:11;;;;;;;1.50;1.40;;;;;;;-1.98;71.17;97071.63;5039094;28;20901;-73
2022/03/02 01:29:37;;;;;;;4.67;2.90;;;;;;;-1.91;71.44;97065.19;5039353;28;20205;-73
2022/03/02 01:32:05;;;;;;;3.67;1.53;;;;;;;-1.73;71.10;97054.72;5039013;28;20234;-73
2022/03/02 01:34:32;;;;;;;2.67;2.43;;;;;;;-1.86;70.72;97045.13;5038714;28;20201;-73
2022/03/02 01:37:00;;;;;;;1.30;1.03;;;;;;;-1.78;70.76;97023.97;5038784;28;20205;-74
2022/03/02 01:39:26;;;;;;;23.40;3.73;;;;;;;-1.81;70.40;97007.78;5038960;28;20197;-73
2022/03/02 01:41:53;;;;;;;3.50;2.93;;;;;;;-1.88;70.95;97000.47;5038870;28;20243;-73
2022/03/02 01:44:20;;;;;;;1.67;1.03;;;;;;;-2.17;73.46;96980.56;5038756;28;20205;-72
2022/03/02 01:46:46;;;;;;;3.13;1.97;;;;;;;-2.31;75.42;96993.38;5039064;28;20673;-73
2022/03/02 01:49:13;;;;;;;11.00;3.23;;;;;;;-2.26;75.93;96989.63;5038527;28;20207;-73
2022/03/02 01:51:40;;;;;;;2.47;2.03;;;;;;;-2.15;75.76;96986.47;5038530;28;20229;-73
2022/03/02 01:54:09;;;;;;;2.43;1.47;;;;;;;-1.84;76.30;96981.31;5038550;28;20208;-73
2022/03/02 01:56:36;;;;;;;1.33;1.23;;;;;;;-1.63;74.48;96991.25;5039149;28;20205;-73
2022/03/02 01:59:04;;;;;;;4.43;3.00;;;;;;;-1.57;73.02;96993.50;5038293;28;20992;-73
2022/03/02 02:01:31;;;;;;;3.40;1.07;;;;;;;-1.66;73.25;96986.28;5038501;28;20343;-73
2022/03/02 02:03:57;;;;;;;2.67;2.47;;;;;;;-1.53;72.41;96979.50;5037806;28;20212;-73
2022/03/02 02:06:24;;;;;;;5.47;3.00;;;;;;;-1.48;72.22;96975.72;5038445;28;20221;-74
2022/03/02 02:08:51;;;;;;;3.97;2.33;;;;;;;-1.36;72.67;96984.53;5038553;28;20229;-73
2022/03/02 02:11:20;;;;;;;5.10;2.07;;;;;;;-1.70;73.91;96989.97;5038693;28;20253;-73
2022/03/02 02:13:46;;;;;;;1.67;1.53;;;;;;;-1.85;73.64;96998.53;5037621;28;20204;-73
2022/03/02 02:16:13;;;;;;;2.00;1.90;;;;;;;-1.78;74.41;96999.91;5038293;28;20590;-73
2022/03/02 02:18:41;;;;;;;2.00;1.83;;;;;;;-1.59;74.96;97005.69;5037932;28;20240;-73
2022/03/02 02:21:10;;;;;;;2.27;2.07;;;;;;;-1.40;74.60;97001.16;5038411;28;20201;-72
2022/03/02 02:23:37;;;;;;;2.27;1.87;;;;;;;-1.52;75.14;97002.66;5036966;28;20216;-73
2022/03/02 02:26:04;;;;;;;6.93;1.67;;;;;;;-1.41;75.63;97002.06;5038707;28;20243;-73
2022/03/02 02:28:31;;;;;;;1.43;1.33;;;;;;;-1.24;75.01;96995.00;5038131;28;20217;-73
2022/03/02 02:31:00;;;;;;;3.00;2.57;;;;;;;-1.18;74.46;97000.66;5036640;28;20212;-73
2022/03/02 02:33:27;;;;;;;3.93;2.00;;;;;;;-1.05;73.26;97001.63;5037350;28;20205;-73
2022/03/02 02:35:54;;;;;;;2.90;2.03;;;;;;;-1.11;72.85;97009.75;5038196;28;20880;-73
2022/03/02 02:38:23;;;;;;;2.40;2.10;;;;;;;-1.20;73.91;97012.00;5037648;28;20591;-73
2022/03/02 02:40:50;;;;;;;5.20;3.07;;;;;;;-1.24;74.72;97009.72;5037997;28;20205;-73
2022/03/02 02:43:18;;;;;;;2.10;1.90;;;;;;;-1.32;75.15;97015.31;5037882;28;20232;-73
2022/03/02 02:45:45;;;;;;;1.70;1.27;;;;;;;-1.20;74.67;97014.59;5038187;28;20212;-73
2022/03/02 02:48:11;;;;;;;1.20;1.20;;;;;;;-1.10;74.05;97008.81;5037798;28;20264;-73
2022/03/02 02:50:39;;;;;;;2.83;1.93;;;;;;;-1.12;74.53;97015.84;5038423;28;20215;-73
2022/03/02 02:53:08;;;;;;;1.77;1.67;;;;;;;-0.94;74.99;97006.16;5036643;28;20221;-73
2022/03/02 02:55:38;;;;;;;2.50;1.90;;;;;;;-0.96;74.89;97013.19;5037548;28;20204;-73
2022/03/02 02:58:05;;;;;;;3.30;2.97;;;;;;;-0.99;74.49;96997.88;5037665;28;20205;-73
2022/03/02 03:00:34;;;;;;;3.93;2.63;;;;;;;-0.90;74.41;96998.16;5037758;28;20568;-73
2022/03/02 03:03:01;;;;;;;5.17;2.63;;;;;;;-1.00;74.64;96989.25;5036390;28;20306;-73
2022/03/02 03:05:31;;;;;;;3.90;2.40;;;;;;;-0.81;73.91;96982.06;5037109;28;20215;-73
2022/03/02 03:07:58;;;;;;;1.67;1.57;;;;;;;-0.92;74.17;96987.03;5037325;28;20347;-73
2022/03/02 03:10:25;;;;;;;11.43;3.67;;;;;;;-0.95;73.44;96991.59;5037715;28;20213;-73
2022/03/02 03:12:53;;;;;;;25.17;2.80;;;;;;;-0.63;73.52;96986.16;5035993;28;20259;-73
2022/03/02 03:15:21;;;;;;;3.60;2.00;;;;;;;-0.76;73.67;96974.88;5037427;28;20212;-73
2022/03/02 03:17:49;;;;;;;2.63;2.07;;;;;;;-0.87;74.04;96977.25;5037368;28;20213;-74
2022/03/02 03:20:20;;;;;;;4.53;2.23;;;;;;;-0.64;73.63;96981.06;5037877;28;20210;-74
2022/03/02 03:22:46;;;;;;;3.13;2.83;;;;;;;-0.93;73.15;96979.38;5036565;28;20235;-74
2022/03/02 03:25:14;;;;;;;5.50;2.63;;;;;;;-0.95;74.38;96982.06;5038425;28;20201;-74
2022/03/02 03:27:41;;;;;;;4.20;3.17;;;;;;;-1.14;75.01;96971.13;5037485;28;20225;-73
2022/03/02 03:30:11;;;;;;;1.57;1.47;;;;;;;-1.08;75.75;96962.19;5034451;28;20206;-73
2022/03/02 03:32:38;;;;;;;2.70;2.50;;;;;;;-1.09;74.66;96969.09;5035960;28;20725;-73
2022/03/02 03:35:07;;;;;;;2.00;1.47;;;;;;;-1.04;74.56;96964.50;5037434;28;20205;-73
2022/03/02 03:37:33;;;;;;;17.53;2.07;;;;;;;-1.26;75.07;96957.25;5037121;28;20193;-73
2022/03/02 03:40:00;;;;;;;6.60;3.73;;;;;;;-1.34;75.75;96956.88;5036694;28;20602;-73
2022/03/02 03:42:26;;;;;;;20.80;3.33;;;;;;;-1.59;77.01;96949.69;5035932;28;20221;-73
2022/03/02 03:44:53;;;;;;;1.40;1.30;;;;;;;-1.70;77.67;96940.88;5037200;28;20262;-73
2022/03/02 03:47:21;;;;;;;3.00;1.77;;;;;;;-1.45;77.88;96943.72;5036738;28;20227;-73
2022/03/02 03:49:47;;;;;;;1.97;1.33;;;;;;;-1.45;76.56;96933.38;5036296;28;20205;-73
2022/03/02 03:52:14;;;;;;;1.80;1.70;;;;;;;-1.59;76.62;96946.25;5035848;28;20239;-73
2022/03/02 03:54:40;;;;;;;3.67;2.50;;;;;;;-1.42;76.47;96941.78;5036505;28;21167;-74
2022/03/02 03:57:07;;;;;;;1.37;1.27;;;;;;;-1.35;75.29;96939.69;5036466;28;20216;-73
2022/03/02 03:59:34;;;;;;;1.57;1.47;;;;;;;-1.30;74.81;96940.25;5036368;28;20199;-73
2022/03/02 04:02:00;;;;;;;4.60;2.10;;;;;;;-1.24;75.29;96938.13;5035756;28;20221;-73
2022/03/02 04:04:28;;;;;;;2.67;1.63;;;;;;;-1.10;75.43;96931.22;5036255;28;20585;-73
2022/03/02 04:06:55;;;;;;;1.43;1.30;;;;;;;-1.21;75.14;96936.22;5036196;28;20208;-73
2022/03/02 04:09:21;;;;;;;11.10;2.53;;;;;;;-1.13;74.96;96930.59;5036543;28;20232;-73
2022/03/02 04:11:48;;;;;;;5.43;2.77;;;;;;;-1.26;74.74;96933.97;5035892;28;20225;-73
2022/03/02 04:14:14;;;;;;;4.40;3.00;;;;;;;-1.14;74.39;96929.75;5035539;28;20575;-73
2022/03/02 04:16:41;;;;;;;8.50;2.60;;;;;;;-1.17;74.46;96924.78;5035675;28;20209;-73
2022/03/02 04:19:08;;;;;;;1.87;1.73;;;;;;;-1.19;74.21;96931.78;5037190;28;20216;-73
2022/03/02 04:21:35;;;;;;;2.50;2.30;;;;;;;-0.98;74.50;96925.34;5035417;28;20217;-73
2022/03/02 04:24:02;;;;;;;3.90;2.73;;;;;;;-1.15;74.39;96925.50;5034864;28;20204;-73
2022/03/02 04:26:28;;;;;;;2.87;1.70;;;;;;;-1.24;74.33;96932.16;5033568;28;20196;-73
2022/03/02 04:28:55;;;;;;;5.87;2.70;;;;;;;-1.23;73.34;96923.44;5035646;28;20228;-73
2022/03/02 04:31:21;;;;;;;7.70;1.90;;;;;;;-1.20;73.16;96929.28;5034845;28;20887;-73
2022/03/02 04:33:48;;;;;;;5.57;1.47;;;;;;;-1.36;74.08;96917.34;5034955;28;20206;-73
2022/03/02 04:36:15;;;;;;;4.97;2.53;;;;;;;-1.35;73.23;96917.28;5035309;28;20201;-73
2022/03/02 04:38:43;;;;;;;3.43;2.43;;;;;;;-1.29;74.21;96913.50;5035397;28;20576;-73
2022/03/02 04:41:10;;;;;;;3.07;2.77;;;;;;;-1.61;74.38;96917.91;5034533;28;20201;-73
2022/03/02 04:43:36;;;;;;;10.10;2.60;;;;;;;-1.59;74.47;96915.25;5034446;28;20200;-73
2022/03/02 04:46:03;;;;;;;6.63;2.40;;;;;;;-1.67;74.79;96917.44;5035025;28;20209;-73
2022/03/02 04:48:29;;;;;;;3.50;1.43;;;;;;;-1.62;74.72;96916.25;5034916;28;20232;-73
2022/03/02 04:50:56;;;;;;;1.53;1.43;;;;;;;-1.63;74.34;96916.34;5034700;28;20212;-73
2022/03/02 04:53:24;;;;;;;1.97;1.80;;;;;;;-1.66;74.79;96916.53;5033318;28;20228;-73
2022/03/02 04:55:52;;;;;;;1.67;1.57;;;;;;;-1.66;75.52;96914.78;5034344;28;20375;-73
2022/03/02 04:58:19;;;;;;;7.23;3.67;;;;;;;-1.79;75.89;96918.16;5034962;28;20206;-73
2022/03/02 05:00:46;;;;;;;4.20;2.07;;;;;;;-1.80;75.33;96914.72;5034677;28;20607;-73
2022/03/02 05:03:12;;;;;;;3.20;2.73;;;;;;;-1.68;75.12;96918.34;5034297;28;21092;-73
2022/03/02 05:05:40;;;;;;;3.90;2.73;;;;;;;-1.75;75.75;96919.63;5034626;28;20502;-73
2022/03/02 05:08:07;;;;;;;4.73;2.87;;;;;;;-1.61;75.25;96922.28;5034784;28;20221;-73
2022/03/02 05:10:34;;;;;;;4.17;2.47;;;;;;;-1.89;76.17;96924.75;5034813;28;20201;-73
2022/03/02 05:13:02;;;;;;;5.67;2.87;;;;;;;-1.63;76.75;96919.78;5034051;28;20223;-73
2022/03/02 05:15:30;;;;;;;2.63;2.40;;;;;;;-1.59;76.25;96913.50;5034460;28;20200;-73
2022/03/02 05:17:57;;;;;;;3.27;1.53;;;;;;;-1.65;75.98;96916.44;5034382;28;20649;-73
2022/03/02 05:20:24;;;;;;;2.27;1.57;;;;;;;-1.72;76.12;96916.88;5035028;28;20201;-73
2022/03/02 05:22:50;;;;;;;3.57;2.47;;;;;;;-1.82;76.52;96907.97;5034462;28;20308;-73
2022/03/02 05:25:17;;;;;;;14.40;3.83;;;;;;;-1.82;76.69;96906.25;5034366;28;20200;-73
2022/03/02 05:27:45;;;;;;;1.40;1.00;;;;;;;-1.84;75.79;96915.00;5034542;28;20212;-73
2022/03/02 05:30:14;;;;;;;3.07;2.73;;;;;;;-1.69;75.33;96917.53;5034727;28;20196;-73
2022/03/02 05:32:41;;;;;;;1.60;1.50;;;;;;;-1.72;75.50;96917.72;5034504;28;20312;-73
2022/03/02 05:35:09;;;;;;;1.90;1.70;;;;;;;-1.78;76.41;96915.47;5033829;28;20204;-73
2022/03/02 05:37:42;;;;;;;7.03;3.30;;;;;;;-1.83;76.24;96917.47;5034924;28;20712;-73
2022/03/02 05:40:11;;;;;;;1.77;1.67;;;;;;;-1.70;75.91;96913.28;5035607;28;20193;-73
2022/03/02 05:42:37;;;;;;;7.93;2.17;;;;;;;-1.79;75.96;96907.81;5034338;28;20229;-73
2022/03/02 05:45:05;;;;;;;0.77;0.77;;;;;;;-1.69;76.30;96920.13;5035293;28;20471;-73
2022/03/02 05:47:32;;;;;;;2.83;1.87;;;;;;;-1.56;76.49;96915.91;5035480;28;20204;-73
2022/03/02 05:49:59;;;;;;;5.63;2.83;;;;;;;-1.64;75.84;96914.72;5034607;28;20243;-73
2022/03/02 05:52:25;;;;;;;2.13;2.00;;;;;;;-1.70;76.36;96904.72;5034229;28;20224;-73
2022/03/02 05:54:52;;;;;;;2.67;2.47;;;;;;;-1.64;75.90;96901.78;5035119;28;20886;-72
2022/03/02 05:57:19;;;;;;;2.13;2.03;;;;;;;-1.69;75.65;96901.22;5035487;28;20208;-73
2022/03/02 05:59:45;;;;;;;4.53;4.07;;;;;;;-1.73;75.42;96903.13;5034489;28;20225;-73
2022/03/02 06:02:12;;;;;;;2.27;2.17;;;;;;;-1.64;75.36;96909.53;5034718;28;20229;-73
2022/03/02 06:04:40;;;;;;;2.83;2.50;;;;;;;-1.59;76.10;96908.34;5035647;28;21301;-73
2022/03/02 06:07:07;;;;;;;6.90;2.67;;;;;;;-1.64;76.00;96899.22;5038123;28;20201;-73
2022/03/02 06:09:34;;;;;;;22.97;2.73;;;;;;;-1.51;75.88;96906.16;5038647;28;20220;-73
2022/03/02 06:12:01;;;;;;;3.17;2.90;;;;;;;-1.56;75.26;96904.75;5038179;28;20221;-73
2022/03/02 06:14:28;;;;;;;28.23;2.03;;;;;;;-1.61;74.85;96911.94;5037639;28;20220;-73
2022/03/02 06:16:55;;;;;;;4.40;2.33;;;;;;;-1.65;75.07;96903.53;5038843;28;20212;-72
2022/03/02 06:19:21;;;;;;;1.90;1.77;;;;;;;-1.61;75.08;96910.16;5037933;28;20696;-72
2022/03/02 06:21:51;;;;;;;2.33;2.03;;;;;;;-1.47;75.08;96915.38;5038751;28;20572;-72
2022/03/02 06:24:17;;;;;;;7.20;2.57;;;;;;;-1.59;74.99;96904.91;5038154;28;20857;-73
2022/03/02 06:26:44;;;;;;;7.00;3.20;;;;;;;-1.50;75.54;96902.66;5038669;28;20205;-73
2022/03/02 06:29:11;;;;;;;1.37;1.23;;;;;;;-1.57;76.05;96911.66;5038013;28;20217;-73
2022/03/02 06:31:38;;;;;;;3.97;2.40;;;;;;;-1.57;75.65;96909.06;5037722;28;20788;-72
2022/03/02 06:34:05;;;;;;;3.43;2.00;;;;;;;-1.44;75.68;96904.88;5037098;28;20204;-72
2022/03/02 06:36:31;;;;;;;5.50;2.93;;;;;;;-1.29;75.62;96903.16;5037915;28;20296;-72
2022/03/02 06:38:59;;;;;;;3.53;2.13;;;;;;;-1.10;75.42;96909.72;5038270;28;20205;-72
2022/03/02 06:41:30;;;;;;;4.37;2.37;;;;;;;-1.11;75.20;96919.25;5037516;28;20227;-72
2022/03/02 06:44:02;;;;;;;3.47;2.40;;;;;;;-1.30;75.77;96919.56;5037819;28;20197;-72
2022/03/02 06:46:37;;;;;;;4.43;3.73;;;;;;;-1.26;76.03;96923.63;5039342;28;20205;-72
2022/03/02 06:49:10;;;;;;;4.07;3.23;;;;;;;-1.21;75.32;96918.13;5038894;28;20224;-72
2022/03/02 06:51:40;;;;;;;7.67;3.37;;;;;;;-1.04;75.50;96915.34;5038689;28;20255;-72
2022/03/02 06:54:11;;;;;;;3.57;2.77;;;;;;;-1.02;75.73;96916.13;5038147;28;20510;-72
2022/03/02 06:56:48;;;;;;;2.50;1.50;;;;;;;-0.89;75.16;96906.69;5039065;28;20213;-72
2022/03/02 06:59:19;;;;;;;2.07;1.93;;;;;;;-0.77;75.30;96895.59;5038486;28;20213;-72
2022/03/02 07:01:51;;;;;;;3.57;2.50;;;;;;;-0.64;75.79;96899.09;5038228;28;20248;-72
2022/03/02 07:04:20;;;;;;;6.53;3.10;;;;;;;-0.55;75.54;96904.56;5038148;28;20670;-72
2022/03/02 07:06:47;;;;;;;3.63;2.83;;;;;;;-0.58;74.26;96907.31;5037534;28;20839;-72
2022/03/02 07:09:17;;;;;;;4.17;2.93;;;;;;;-0.40;73.82;96892.41;5037506;28;20239;-72
2022/03/02 07:11:44;;;;;;;3.60;2.13;;;;;;;-0.33;74.08;96893.69;5037292;28;20701;-72
2022/03/02 07:14:15;;;;;;;10.23;3.93;;;;;;;-0.22;73.90;96899.03;5036914;28;20209;-72
2022/03/02 07:16:43;;;;;;;6.83;3.73;;;;;;;0.04;73.97;96899.88;5036718;28;20240;-72
2022/03/02 07:19:09;;;;;;;5.50;3.03;;;;;;;-0.17;74.34;96894.38;5037257;28;21113;-72
2022/03/02 07:21:39;;;;;;;4.20;2.57;;;;;;;0.28;73.89;96894.84;5037655;28;20572;-72
2022/03/02 07:24:12;;;;;;;18.43;3.77;;;;;;;0.28;72.93;96889.66;5036260;28;20208;-72
2022/03/02 07:26:44;;;;;;;4.20;3.30;;;;;;;0.47;74.08;96893.59;5037292;28;20209;-72
2022/03/02 07:29:14;;;;;;;7.00;3.20;;;;;;;0.71;74.76;96892.78;5037419;28;20236;-72
2022/03/02 07:31:42;;;;;;;5.37;3.50;;;;;;;0.78;74.96;96885.44;5036761;28;20728;-72
2022/03/02 07:34:12;;;;;;;2.77;2.57;;;;;;;1.03;74.38;96888.00;5036017;28;20665;-72
2022/03/02 07:36:40;;;;;;;4.33;3.70;;;;;;;1.03;74.37;96880.22;5037359;28;20228;-72
2022/03/02 07:39:07;;;;;;;6.37;3.93;;;;;;;1.16;74.10;96879.31;5036973;28;20306;-72
2022/03/02 07:41:34;;;;;;;10.93;4.03;;;;;;;1.20;73.50;96871.19;5037037;28;20222;-72
2022/03/02 07:44:02;;;;;;;7.67;3.93;;;;;;;1.31;71.75;96870.44;5035933;28;20821;-72
2022/03/02 07:46:29;;;;;;;8.20;3.77;;;;;;;1.06;71.13;96874.81;5037307;28;20209;-72
2022/03/02 07:48:56;;;;;;;4.77;2.87;;;;;;;1.26;70.68;96875.13;5036694;28;20232;-72
2022/03/02 07:51:23;;;;;;;5.73;3.83;;;;;;;1.53;69.79;96868.84;5036386;28;20225;-72
2022/03/02 07:53:51;;;;;;;3.33;2.17;;;;;;;1.72;70.57;96858.00;5036225;28;20209;-72
2022/03/02 07:56:19;;;;;;;3.03;2.40;;;;;;;1.66;69.13;96864.44;5037058;28;20203;-72
2022/03/02 07:58:46;;;;;;;5.03;2.77;;;;;;;1.69;69.73;96864.22;5036772;28;20214;-72
2022/03/02 08:01:17;;;;;;;7.27;4.37;;;;;;;1.89;69.29;96856.66;5036543;28;20197;-72
2022/03/02 08:03:45;;;;;;;7.57;3.73;;;;;;;1.81;69.29;96865.97;5035594;28;20264;-72
2022/03/02 08:06:13;;;;;;;4.00;2.87;;;;;;;1.86;68.47;96863.88;5035659;28;20201;-72
2022/03/02 08:08:40;;;;;;;7.00;3.63;;;;;;;1.96;68.49;96857.91;5036618;28;20365;-72
2022/03/02 08:11:07;;;;;;;8.10;4.90;;;;;;;2.04;67.69;96859.97;5037040;28;20202;-72
2022/03/02 08:13:35;;;;;;;3.87;2.70;;;;;;;2.35;66.98;96862.81;5035741;28;20205;-72
2022/03/02 08:16:03;;;;;;;5.20;3.67;;;;;;;2.40;66.55;96858.91;5035489;28;20211;-72
2022/03/02 08:18:31;;;;;;;7.07;3.70;;;;;;;2.65;66.74;96863.16;5036022;28;20212;-72
2022/03/02 08:20:58;;;;;;;7.80;3.07;;;;;;;2.29;66.57;96865.03;5037053;28;20676;-72
2022/03/02 08:23:29;;;;;;;1.97;1.83;;;;;;;2.50;66.38;96865.09;5035577;28;20204;-72
2022/03/02 08:25:56;;;;;;;3.60;2.43;;;;;;;2.43;66.73;96868.25;5036514;28;20212;-72
2022/03/02 08:28:24;;;;;;;4.77;3.40;;;;;;;2.57;66.47;96874.13;5035639;28;20714;-72
2022/03/02 08:30:52;;;;;;;4.40;2.53;;;;;;;2.64;65.57;96872.72;5036015;28;20480;-72
2022/03/02 08:33:25;;;;;;;4.10;3.33;;;;;;;2.46;66.44;96868.88;5035238;28;20227;-72
2022/03/02 08:35:54;;;;;;;5.73;3.77;;;;;;;2.69;65.41;96859.38;5036194;28;20515;-72
2022/03/02 08:38:21;;;;;;;7.90;3.27;;;;;;;2.56;65.99;96858.63;5035729;28;20791;-72
2022/03/02 08:40:47;;;;;;;2.83;2.37;;;;;;;2.46;66.46;96855.88;5035818;28;20197;-72
2022/03/02 08:43:15;;;;;;;6.37;4.17;;;;;;;2.84;66.54;96853.84;5035334;28;20231;-72
2022/03/02 08:45:43;;;;;;;4.57;3.00;;;;;;;3.04;65.26;96845.34;5035576;28;20775;-72
2022/03/02 08:48:11;;;;;;;7.60;3.13;;;;;;;2.91;66.49;96843.81;5036193;28;20200;-72
2022/03/02 08:50:38;;;;;;;6.97;3.00;;;;;;;2.96;66.37;96841.69;5036105;28;20232;-72
2022/03/02 08:53:06;;;;;;;11.20;3.70;;;;;;;2.88;66.07;96847.47;5034602;28;20228;-72
2022/03/02 08:55:34;;;;;;;5.23;3.93;;;;;;;2.83;66.99;96849.59;5035506;28;20208;-72
2022/03/02 08:58:01;;;;;;;2.07;1.90;;;;;;;2.81;66.17;96854.06;5035837;28;20208;-72
2022/03/02 09:00:28;;;;;;;4.87;2.83;;;;;;;3.01;66.33;96851.59;5036122;28;20424;-72
2022/03/02 09:02:55;;;;;;;5.60;3.30;;;;;;;3.04;66.21;96845.34;5034916;28;20236;-72
2022/03/02 09:05:23;;;;;;;8.07;4.43;;;;;;;3.09;66.27;96848.44;5035668;28;20215;-72
2022/03/02 09:07:50;;;;;;;7.60;4.60;;;;;;;3.37;65.31;96850.56;5036066;28;20590;-72
2022/03/02 09:10:18;;;;;;;3.07;2.70;;;;;;;3.11;66.06;96859.56;5035415;28;20220;-72
2022/03/02 09:12:44;;;;;;;4.80;2.97;;;;;;;3.38;64.21;96847.84;5034733;28;20694;-72
2022/03/02 09:15:11;;;;;;;4.90;3.37;;;;;;;3.45;64.04;96845.59;5035695;28;20205;-72
2022/03/02 09:17:37;;;;;;;8.27;3.30;;;;;;;3.43;63.27;96837.09;5035615;28;20223;-71
2022/03/02 09:20:06;;;;;;;15.70;4.27;;;;;;;3.77;62.90;96834.31;5035422;28;20551;-72
2022/03/02 09:22:36;;;;;;;7.60;4.20;;;;;;;3.95;62.48;96840.66;5035132;28;20232;-72
2022/03/02 09:25:06;;;;;;;5.70;3.10;;;;;;;4.16;62.43;96839.75;5035407;28;20197;-71
2022/03/02 09:27:35;;;;;;;7.50;3.30;;;;;;;4.33;61.00;96834.84;5035838;28;20623;-72
2022/03/02 09:30:06;;;;;;;5.83;3.67;;;;;;;3.65;62.76;96843.94;5034912;28;20697;-72
2022/03/02 09:32:33;;;;;;;8.43;4.03;;;;;;;3.80;62.30;96842.69;5035639;28;20593;-72
2022/03/02 09:35:00;;;;;;;6.20;3.23;;;;;;;4.17;61.49;96844.03;5035940;28;20290;-72
2022/03/02 09:37:33;;;;;;;12.70;4.20;;;;;;;4.18;63.21;96840.47;5035056;28;20212;-72
2022/03/02 09:40:00;;;;;;;7.40;4.20;;;;;;;3.89;62.77;96844.56;5037143;28;20263;-72
2022/03/02 09:42:30;;;;;;;2.50;2.30;;;;;;;4.07;62.71;96842.28;5039059;28;20225;-72
2022/03/02 09:45:03;;;;;;;10.73;3.60;;;;;;;4.03;61.85;96841.69;5039649;28;20213;-72
2022/03/02 09:47:42;;;;;;;5.33;4.00;;;;;;;4.54;61.57;96840.09;5039308;28;20197;-72
2022/03/02 09:50:10;;;;;;;7.63;4.00;;;;;;;4.48;60.82;96837.97;5039171;28;20221;-72
2022/03/02 09:52:39;;;;;;;6.13;2.97;;;;;;;4.46;59.53;96834.66;5038609;28;20240;-72
2022/03/02 09:55:10;;;;;;;8.07;3.80;;;;;;;4.41;60.17;96829.00;5038957;28;20205;-72
2022/03/02 09:57:42;;;;;;;8.50;3.60;;;;;;;4.84;59.32;96817.50;5039287;28;21007;-72
2022/03/02 10:00:12;;;;;;;7.67;4.37;;;;;;;5.01;58.10;96822.94;5038793;28;20236;-72
2022/03/02 10:02:41;;;;;;;6.50;3.60;;;;;;;4.81;57.93;96816.91;5038055;28;20221;-72
2022/03/02 10:05:10;;;;;;;4.37;2.77;;;;;;;5.13;56.73;96808.84;5039010;28;20280;-72
2022/03/02 10:07:40;;;;;;;8.77;3.77;;;;;;;4.99;55.73;96816.19;5038566;28;20212;-72
2022/03/02 10:10:10;;;;;;;17.57;3.93;;;;;;;5.30;55.98;96805.63;5038467;28;20315;-72
2022/03/02 10:12:37;;;;;;;9.60;4.17;;;;;;;5.25;54.49;96792.13;5038489;28;20565;-72
2022/03/02 10:15:06;;;;;;;11.30;3.60;;;;;;;5.52;54.10;96789.75;5038318;28;20753;-72
2022/03/02 10:17:37;;;;;;;7.97;4.00;;;;;;;5.69;54.66;96786.47;5038544;28;20669;-72
2022/03/02 10:20:07;;;;;;;11.57;3.77;;;;;;;5.99;54.83;96782.03;5038537;28;20193;-72
2022/03/02 10:22:58;;;;;;;5.23;3.07;;;;;;;5.96;53.96;96778.84;5037481;28;20949;-72
2022/03/02 10:25:33;;;;;;;11.17;4.60;;;;;;;6.12;52.90;96786.06;5029397;28;20205;-72
2022/03/02 10:28:02;;;;;;;8.67;3.47;;;;;;;6.07;53.89;96788.25;5038638;28;20594;-73
2022/03/02 10:30:32;;;;;;;7.80;3.23;;;;;;;6.49;52.53;96794.03;5038813;28;20243;-73
2022/03/02 10:33:16;;;;;;;8.13;4.13;;;;;;;6.17;52.73;96798.72;5037810;28;20729;-73
2022/03/02 10:35:53;;;;;;;12.90;4.93;;;;;;;6.31;55.29;96806.16;5037947;28;20205;-72
2022/03/02 10:38:31;;;;;;;9.73;4.70;;;;;;;6.47;53.48;96801.22;5038212;28;20205;-73
2022/03/02 10:41:00;;;;;;;8.53;4.27;;;;;;;6.37;52.85;96792.53;5038443;28;20502;-73
2022/03/02 10:43:38;;;;;;;9.70;4.03;;;;;;;6.56;52.80;96790.72;5037484;28;20747;-73
2022/03/02 10:46:08;;;;;;;7.93;5.20;;;;;;;6.49;53.70;96791.41;5037767;28;20212;-72
2022/03/02 10:48:42;;;;;;;9.03;4.30;;;;;;;6.85;51.39;96774.00;5037795;28;20573;-73
2022/03/02 10:51:13;;;;;;;8.30;4.93;;;;;;;6.65;52.61;96776.78;5036766;28;20712;-73
2022/03/02 10:53:41;;;;;;;6.70;3.50;;;;;;;6.66;52.63;96775.81;5037658;28;20211;-73
2022/03/02 10:56:09;;;;;;;10.50;4.10;;;;;;;6.65;52.64;96778.59;5037687;28;20709;-72
2022/03/02 10:58:38;;;;;;;13.50;5.50;;;;;;;7.09;52.80;96773.50;5037922;28;20221;-73
2022/03/02 11:01:05;;;;;;;12.00;4.17;;;;;;;7.29;51.38;96768.91;5037606;28;20636;-73
2022/03/02 11:03:38;;;;;;;12.67;4.30;;;;;;;7.68;50.60;96761.66;5037512;28;20203;-73
2022/03/02 11:06:07;;;;;;;6.37;3.57;;;;;;;6.94;51.76;96765.28;5038242;28;20198;-73
2022/03/02 11:08:35;;;;;;;10.13;3.37;;;;;;;6.99;50.66;96765.69;5038736;28;20198;-72
2022/03/02 11:11:02;;;;;;;9.13;3.87;;;;;;;7.05;50.59;96756.41;5037911;28;20727;-72
2022/03/02 11:13:29;;;;;;;8.17;5.20;;;;;;;7.28;49.22;96758.56;5037506;28;20201;-73
2022/03/02 11:15:58;;;;;;;10.17;3.57;;;;;;;7.36;48.90;96751.59;5038373;28;20990;-72
2022/03/02 11:18:33;;;;;;;4.50;2.33;;;;;;;7.34;50.58;96758.81;5038285;28;20216;-73
2022/03/02 11:21:03;;;;;;;11.93;5.67;;;;;;;7.51;48.52;96759.81;5037671;28;20208;-73
2022/03/02 11:23:34;;;;;;;6.93;2.87;;;;;;;7.48;48.74;96741.75;5037355;28;20217;-73
2022/03/02 11:26:07;;;;;;;13.77;5.17;;;;;;;7.70;46.50;96743.97;5038234;28;20205;-73
2022/03/02 11:28:33;;;;;;;11.53;4.63;;;;;;;7.14;50.25;96745.06;5038051;28;20881;-73
2022/03/02 11:31:07;;;;;;;8.13;4.10;;;;;;;7.39;50.24;96751.31;5037220;28;20232;-73
2022/03/02 11:33:34;;;;;;;6.70;2.93;;;;;;;7.11;51.79;96750.63;5037287;28;20212;-73
2022/03/02 11:36:11;;;;;;;6.03;3.57;;;;;;;7.26;49.49;96747.38;5037370;28;20207;-73
2022/03/02 11:38:40;;;;;;;7.37;4.07;;;;;;;7.63;51.06;96735.88;5038309;28;20212;-73
2022/03/02 11:41:07;;;;;;;9.20;4.13;;;;;;;7.40;49.69;96736.41;5037138;28;20215;-73